Page Field
KFMY : now visible

Airfield :











YOU CAN JOIN US ON...

 
LOGIN :

Register | Disclaimer

   EN    FR    IT 

 









Legend :    VFR   Marginal VFR   IFR   Intensive IFR   Very Intensive IFR
Visi :
Ceiling :
>= 8 km
>= 3000ft
5 to 8 km
1000 to 3000 ft
1500m to 5 km
500 to 1000 ft
800 to 1500m
200 to 500 ft
< 800m
< 200 ft
Symbols :   Thunderstorms  Fog  Heavy snow  Heavy precipitations  Wind > 20 kt






- Airport Elevation : 17 ft


KFMY - Page Field

CURRENT METAR :
  • 071953Z 04009G17KT 10SM CLR 30/13 A3003 RMK AO2 SLP171 T03000133

EXPIRED METARs :
  • 071853Z 06009G17KT 10SM CLR 30/14 A3005 RMK VA 5 ATIS G
  • 071753Z CLR 29/16 A3008 RMK AO2 SLP186 T02940161 10300 20211 58019
  • 071653Z 05009G16KT 10SM CLR 29/16 A3011 RMK VAP RWY 5 ATIS E

TAF KFMY
Valid from the 07 at 18:00 until the 08 at 18:00 UTC


071720Z 0718/0818 05010G15KT P6SM FEW050
FM080200 07004KT P6SM SKC
FM081400 05008KT P6SM FEW050
KZMA FIR / North America



MET'MAP, your aeronautical weather chart ! - Copyright ORBIFLY December 2007 - Disclaimer

ORBIFLY MET'MAP TEAM :

Programming & Development : Alexandra Zaïnal
Original concept : Baudouin d'Aumeries
Technical & hardware support : Manuel Goepfert
Assistance : Marc-Olivier Méhu




SOURCES & CREDITS :

   NOAA       Earth
Advisory